Genua — IIYU — position and weather

sailwx.info

Track history (hours):
 
Tides and Currents Weather Stations Pressure Air Temp Water Temp Dewpoint Dewpoint Depression Visibility Wind Speed Wind Dir Waves Ship Positions

Genua

Last reported at 2014-Jul-30 06:32 UTC. Time now 2014-Jul-30 07:07 UTC.
Position N 44°25' E 008°55'.

; draft 6 m.

Type: Tug. MMSI: 247204000.

Date/timePositionNaut miles runAvg speedWind from/ knotsBaromVisibWave heightAir tempDewpointWater temp
2014-Jul-30 06:32N 44°25' E 008°55'1 0.9
2014-Jul-30 05:32N 44°24' E 008°55'2 1.9
2014-Jul-30 04:32N 44°24' E 008°53'2 2.2
2014-Jul-30 03:33N 44°24' E 008°56'1 1.1
2014-Jul-30 02:31N 44°25' E 008°55'0 0.0
2014-Jul-30 01:31N 44°25' E 008°55'0 0.0
2014-Jul-30 00:31N 44°25' E 008°55'0 0.0
2014-Jul-29 23:25N 44°25' E 008°55'0 0.0
2014-Jul-29 22:25N 44°25' E 008°55'0 0.0
2014-Jul-29 19:25N 44°25' E 008°55'0 0.0
2014-Jul-29 18:28N 44°25' E 008°55'0 0.0
2014-Jul-29 16:04N 44°25' E 008°55'0 0.0
2014-Jul-29 15:25N 44°25' E 008°55'1 1.1
2014-Jul-29 14:33N 44°24' E 008°55'1 0.9
2014-Jul-29 13:32N 44°25' E 008°55'0 0.0
2014-Jul-29 12:17N 44°25' E 008°55'0 0.0
2014-Jul-29 11:29N 44°25' E 008°55'0 0.0
2014-Jul-29 10:29N 44°25' E 008°55'0 0.0
2014-Jul-29 09:17N 44°25' E 008°55'2 2.6
2014-Jul-29 08:32N 44°24' E 008°53'2 2.0
2014-Jul-29 07:32N 44°25' E 008°55'0 0.0
2014-Jul-27 18:31N 44°25' E 008°55'0 0.2
2014-Jul-27 16:33N 44°24' E 008°55'0 0.5
2014-Jul-27 15:33N 44°24' E 008°55'4 4.3
2014-Jul-27 14:33N 44°25' E 008°50'1 1.2
2014-Jul-27 13:33N 44°25' E 008°48'5 2.5
2014-Jul-27 11:32N 44°25' E 008°55'0 0.0
2014-Jul-27 10:32N 44°25' E 008°55'0 0.0
2014-Jul-27 09:32N 44°25' E 008°55'0 0.0
2014-Jul-27 07:17N 44°25' E 008°55'0 0.0
2014-Jul-27 06:26N 44°25' E 008°55'0 0.0
2014-Jul-27 05:20N 44°25' E 008°55'0 0.0
2014-Jul-27 04:32N 44°25' E 008°55'1 1.5
2014-Jul-27 03:33N 44°24' E 008°53'1 1.3
2014-Jul-27 02:28N 44°25' E 008°55'0 0.0
2014-Jul-27 01:31N 44°25' E 008°55'0 0.0
2014-Jul-27 00:25N 44°25' E 008°55'0 0.0
2014-Jul-26 23:25N 44°25' E 008°55'0 0.0
2014-Jul-26 20:32N 44°25' E 008°55'1 1.1
2014-Jul-26 19:32N 44°24' E 008°54'1 1.0
2014-Jul-26 18:26N 44°25' E 008°55'0 0.0
2014-Jul-26 15:26N 44°25' E 008°55'0 0.0
2014-Jul-26 14:20N 44°25' E 008°55'0 0.0
2014-Jul-26 12:32N 44°25' E 008°55'0 0.0
2014-Jul-26 11:29N 44°25' E 008°55'0 0.0
2014-Jul-26 07:32N 44°25' E 008°55'0 0.0
2014-Jul-26 06:32N 44°25' E 008°55'1 1.1
2014-Jul-26 05:29N 44°24' E 008°54'2 1.9
2014-Jul-26 04:33N 44°23' E 008°56'0 0.4
2014-Jul-26 03:33N 44°24' E 008°56'1 0.5
2014-Jul-26 01:31N 44°25' E 008°55'0 0.0
2014-Jul-26 00:22N 44°25' E 008°55'0 0.0
2014-Jul-25 23:13N 44°25' E 008°55'0 0.0
2014-Jul-25 22:13N 44°25' E 008°55'0 0.0
2014-Jul-25 21:19N 44°25' E 008°55'0 0.0
2014-Jul-25 19:31N 44°25' E 008°55'0 0.0
2014-Jul-25 16:13N 44°25' E 008°55'0 0.0
2014-Jul-25 15:31N 44°25' E 008°55'0 0.2
2014-Jul-25 14:33N 44°25' E 008°55'0 0.2
2014-Jul-25 13:19N 44°25' E 008°55'0 0.0
2014-Jul-25 12:13N 44°25' E 008°55'0 0.0
2014-Jul-25 11:31N 44°25' E 008°55'0 0.0
2014-Jul-25 10:31N 44°25' E 008°55'0 0.0
2014-Jul-25 07:31N 44°25' E 008°55'0 0.0
2014-Jul-25 06:13N 44°25' E 008°55'1 1.2
2014-Jul-25 05:33N 44°24' E 008°55'1 0.9
2014-Jul-25 04:25N 44°24' E 008°54'1 1.1
2014-Jul-25 03:18N 44°25' E 008°55'0 0.0
2014-Jul-25 02:33N 44°25' E 008°55'0 0.0
2014-Jul-25 01:30N 44°25' E 008°55'0 0.0
2014-Jul-25 00:33N 44°25' E 008°55'0 0.0
2014-Jul-24 23:30N 44°25' E 008°55'0 0.0
2014-Jul-24 22:33N 44°25' E 008°55'0 0.0
2014-Jul-24 19:33N 44°25' E 008°55'0 0.0
2014-Jul-24 17:27N 44°25' E 008°55'1 1.6
2014-Jul-24 16:33N 44°24' E 008°53'0 0.1
2014-Jul-24 15:26N 44°24' E 008°53'2 2.7
2014-Jul-24 14:33N 44°23' E 008°56'2 0.7
2014-Jul-24 12:16N 44°25' E 008°55'0 0.0
2014-Jul-24 11:22N 44°25' E 008°55'0 0.0
2014-Jul-24 09:34N 44°25' E 008°55'2 1.9
2014-Jul-24 08:23N 44°24' E 008°52'0 0.0
2014-Jul-24 07:33N 44°24' E 008°52'2 2.3
2014-Jul-24 06:33N 44°24' E 008°55'1 0.9
2014-Jul-24 05:33N 44°25' E 008°55'0 0.5
2014-Jul-24 04:32N 44°24' E 008°55'1 0.4
2014-Jul-24 03:15N 44°25' E 008°55'0 0.0
2014-Jul-24 02:33N 44°25' E 008°55'0 0.0
2014-Jul-24 01:33N 44°25' E 008°55'0 0.0
2014-Jul-24 00:30N 44°25' E 008°55'0 0.0
2014-Jul-23 23:27N 44°25' E 008°55'0 0.0
2014-Jul-23 21:09N 44°25' E 008°55'0 0.0
2014-Jul-23 20:18N 44°25' E 008°55'0 0.0
2014-Jul-23 19:30N 44°25' E 008°55'0 0.0
2014-Jul-23 16:06N 44°25' E 008°55'0 0.0
2014-Jul-23 15:33N 44°25' E 008°55'2 1.6
2014-Jul-23 14:33N 44°24' E 008°53'2 1.6
2014-Jul-23 13:33N 44°25' E 008°55'0 0.0
2014-Jul-23 11:31N 44°25' E 008°55'0 0.0
2014-Jul-23 10:31N 44°25' E 008°55'0 0.0
2014-Jul-23 09:07N 44°25' E 008°55'0 0.0
2014-Jul-23 08:04N 44°25' E 008°55'0 0.0
2014-Jul-23 07:31N 44°25' E 008°55'0 0.0
2014-Jul-23 06:31N 44°25' E 008°55'0 0.0
2014-Jul-22 13:28N 44°25' E 008°55'0 0.0
2014-Jul-22 12:13N 44°25' E 008°55'0 0.0
2014-Jul-21 16:20N 44°25' E 008°55'0 0.0
2014-Jul-21 05:31N 44°25' E 008°56'0 0.0
2014-Jul-20 18:25N 44°25' E 008°55'0 0.0
2014-Jul-20 16:25N 44°25' E 008°55'0 0.3
2014-Jul-20 15:33N 44°25' E 008°55'1 0.8
2014-Jul-20 14:25N 44°24' E 008°54'1 0.8
2014-Jul-20 13:33N 44°24' E 008°55'1 0.6
2014-Jul-20 12:06N 44°25' E 008°55'0 0.0
2014-Jul-20 11:24N 44°25' E 008°55'0 0.0
2014-Jul-20 09:30N 44°25' E 008°55'0 0.0
2014-Jul-20 08:30N 44°25' E 008°55'0 0.0
2014-Jul-20 07:33N 44°25' E 008°55'  
Track history (hours):
 
Tides and Currents Weather Stations Pressure Air Temp Water Temp Dewpoint Dewpoint Depression Visibility Wind Speed Wind Dir Waves Ship Positions

Genua

Last reported at 2014-Jul-30 06:32 UTC. Time now 2014-Jul-30 07:07 UTC.
Position N 44°25' E 008°55'.

; draft 6 m.

Type: Tug. MMSI: 247204000.

Date/timePositionNaut miles runAvg speedWind from/ knotsBaromVisibWave heightAir tempDewpointWater temp
2014-Jul-30 06:32N 44°25' E 008°55'1 0.9
2014-Jul-30 05:32N 44°24' E 008°55'2 1.9
2014-Jul-30 04:32N 44°24' E 008°53'2 2.2
2014-Jul-30 03:33N 44°24' E 008°56'1 1.1
2014-Jul-30 02:31N 44°25' E 008°55'0 0.0
2014-Jul-30 01:31N 44°25' E 008°55'0 0.0
2014-Jul-30 00:31N 44°25' E 008°55'0 0.0
2014-Jul-29 23:25N 44°25' E 008°55'0 0.0
2014-Jul-29 22:25N 44°25' E 008°55'0 0.0
2014-Jul-29 19:25N 44°25' E 008°55'0 0.0
2014-Jul-29 18:28N 44°25' E 008°55'0 0.0
2014-Jul-29 16:04N 44°25' E 008°55'0 0.0
2014-Jul-29 15:25N 44°25' E 008°55'1 1.1
2014-Jul-29 14:33N 44°24' E 008°55'1 0.9
2014-Jul-29 13:32N 44°25' E 008°55'0 0.0
2014-Jul-29 12:17N 44°25' E 008°55'0 0.0
2014-Jul-29 11:29N 44°25' E 008°55'0 0.0
2014-Jul-29 10:29N 44°25' E 008°55'0 0.0
2014-Jul-29 09:17N 44°25' E 008°55'2 2.6
2014-Jul-29 08:32N 44°24' E 008°53'2 2.0
2014-Jul-29 07:32N 44°25' E 008°55'0 0.0
2014-Jul-27 18:31N 44°25' E 008°55'0 0.2
2014-Jul-27 16:33N 44°24' E 008°55'0 0.5
2014-Jul-27 15:33N 44°24' E 008°55'4 4.3
2014-Jul-27 14:33N 44°25' E 008°50'1 1.2
2014-Jul-27 13:33N 44°25' E 008°48'5 2.5
2014-Jul-27 11:32N 44°25' E 008°55'0 0.0
2014-Jul-27 10:32N 44°25' E 008°55'0 0.0
2014-Jul-27 09:32N 44°25' E 008°55'0 0.0
2014-Jul-27 07:17N 44°25' E 008°55'0 0.0
2014-Jul-27 06:26N 44°25' E 008°55'0 0.0
2014-Jul-27 05:20N 44°25' E 008°55'0 0.0
2014-Jul-27 04:32N 44°25' E 008°55'1 1.5
2014-Jul-27 03:33N 44°24' E 008°53'1 1.3
2014-Jul-27 02:28N 44°25' E 008°55'0 0.0
2014-Jul-27 01:31N 44°25' E 008°55'0 0.0
2014-Jul-27 00:25N 44°25' E 008°55'0 0.0
2014-Jul-26 23:25N 44°25' E 008°55'0 0.0
2014-Jul-26 20:32N 44°25' E 008°55'1 1.1
2014-Jul-26 19:32N 44°24' E 008°54'1 1.0
2014-Jul-26 18:26N 44°25' E 008°55'0 0.0
2014-Jul-26 15:26N 44°25' E 008°55'0 0.0
2014-Jul-26 14:20N 44°25' E 008°55'0 0.0
2014-Jul-26 12:32N 44°25' E 008°55'0 0.0
2014-Jul-26 11:29N 44°25' E 008°55'0 0.0
2014-Jul-26 07:32N 44°25' E 008°55'0 0.0
2014-Jul-26 06:32N 44°25' E 008°55'1 1.1
2014-Jul-26 05:29N 44°24' E 008°54'2 1.9
2014-Jul-26 04:33N 44°23' E 008°56'0 0.4
2014-Jul-26 03:33N 44°24' E 008°56'1 0.5
2014-Jul-26 01:31N 44°25' E 008°55'0 0.0
2014-Jul-26 00:22N 44°25' E 008°55'0 0.0
2014-Jul-25 23:13N 44°25' E 008°55'0 0.0
2014-Jul-25 22:13N 44°25' E 008°55'0 0.0
2014-Jul-25 21:19N 44°25' E 008°55'0 0.0
2014-Jul-25 19:31N 44°25' E 008°55'0 0.0
2014-Jul-25 16:13N 44°25' E 008°55'0 0.0
2014-Jul-25 15:31N 44°25' E 008°55'0 0.2
2014-Jul-25 14:33N 44°25' E 008°55'0 0.2
2014-Jul-25 13:19N 44°25' E 008°55'0 0.0
2014-Jul-25 12:13N 44°25' E 008°55'0 0.0
2014-Jul-25 11:31N 44°25' E 008°55'0 0.0
2014-Jul-25 10:31N 44°25' E 008°55'0 0.0
2014-Jul-25 07:31N 44°25' E 008°55'0 0.0
2014-Jul-25 06:13N 44°25' E 008°55'1 1.2
2014-Jul-25 05:33N 44°24' E 008°55'1 0.9
2014-Jul-25 04:25N 44°24' E 008°54'1 1.1
2014-Jul-25 03:18N 44°25' E 008°55'0 0.0
2014-Jul-25 02:33N 44°25' E 008°55'0 0.0
2014-Jul-25 01:30N 44°25' E 008°55'0 0.0
2014-Jul-25 00:33N 44°25' E 008°55'0 0.0
2014-Jul-24 23:30N 44°25' E 008°55'0 0.0
2014-Jul-24 22:33N 44°25' E 008°55'0 0.0
2014-Jul-24 19:33N 44°25' E 008°55'0 0.0
2014-Jul-24 17:27N 44°25' E 008°55'1 1.6
2014-Jul-24 16:33N 44°24' E 008°53'0 0.1
2014-Jul-24 15:26N 44°24' E 008°53'2 2.7
2014-Jul-24 14:33N 44°23' E 008°56'2 0.7
2014-Jul-24 12:16N 44°25' E 008°55'0 0.0
2014-Jul-24 11:22N 44°25' E 008°55'0 0.0
2014-Jul-24 09:34N 44°25' E 008°55'2 1.9
2014-Jul-24 08:23N 44°24' E 008°52'0 0.0
2014-Jul-24 07:33N 44°24' E 008°52'2 2.3
2014-Jul-24 06:33N 44°24' E 008°55'1 0.9
2014-Jul-24 05:33N 44°25' E 008°55'0 0.5
2014-Jul-24 04:32N 44°24' E 008°55'1 0.4
2014-Jul-24 03:15N 44°25' E 008°55'0 0.0
2014-Jul-24 02:33N 44°25' E 008°55'0 0.0
2014-Jul-24 01:33N 44°25' E 008°55'0 0.0
2014-Jul-24 00:30N 44°25' E 008°55'0 0.0
2014-Jul-23 23:27N 44°25' E 008°55'0 0.0
2014-Jul-23 21:09N 44°25' E 008°55'0 0.0
2014-Jul-23 20:18N 44°25' E 008°55'0 0.0
2014-Jul-23 19:30N 44°25' E 008°55'0 0.0
2014-Jul-23 16:06N 44°25' E 008°55'0 0.0
2014-Jul-23 15:33N 44°25' E 008°55'2 1.6
2014-Jul-23 14:33N 44°24' E 008°53'2 1.6
2014-Jul-23 13:33N 44°25' E 008°55'0 0.0
2014-Jul-23 11:31N 44°25' E 008°55'0 0.0
2014-Jul-23 10:31N 44°25' E 008°55'0 0.0
2014-Jul-23 09:07N 44°25' E 008°55'0 0.0
2014-Jul-23 08:04N 44°25' E 008°55'0 0.0
2014-Jul-23 07:31N 44°25' E 008°55'0 0.0
2014-Jul-23 06:31N 44°25' E 008°55'0 0.0
2014-Jul-22 13:28N 44°25' E 008°55'0 0.0
2014-Jul-22 12:13N 44°25' E 008°55'0 0.0
2014-Jul-21 16:20N 44°25' E 008°55'0 0.0
2014-Jul-21 05:31N 44°25' E 008°56'0 0.0
2014-Jul-20 18:25N 44°25' E 008°55'0 0.0
2014-Jul-20 16:25N 44°25' E 008°55'0 0.3
2014-Jul-20 15:33N 44°25' E 008°55'1 0.8
2014-Jul-20 14:25N 44°24' E 008°54'1 0.8
2014-Jul-20 13:33N 44°24' E 008°55'1 0.6
2014-Jul-20 12:06N 44°25' E 008°55'0 0.0
2014-Jul-20 11:24N 44°25' E 008°55'0 0.0
2014-Jul-20 09:30N 44°25' E 008°55'0 0.0
2014-Jul-20 08:30N 44°25' E 008°55'0 0.0
2014-Jul-20 07:33N 44°25' E 008°55'  

Dump ship's entire track history